createdAt,value
2017-07-14T00:00:25.389Z,12.00
2017-07-14T00:02:53.107Z,12.00
2017-07-14T00:05:21.426Z,12.00
2017-07-14T00:07:48.906Z,12.00
2017-07-14T00:10:16.425Z,12.00
2017-07-14T00:12:43.902Z,12.00
2017-07-14T00:15:11.397Z,12.10
2017-07-14T00:17:38.916Z,12.00
2017-07-14T00:20:06.834Z,12.10
2017-07-14T00:22:34.360Z,12.10
2017-07-14T00:25:01.883Z,12.00
2017-07-14T00:27:30.154Z,12.00
2017-07-14T00:29:58.405Z,12.00
2017-07-14T00:32:26.005Z,12.00
2017-07-14T00:34:53.508Z,12.10
2017-07-14T00:37:21.001Z,12.00
2017-07-14T00:39:49.293Z,11.90
2017-07-14T00:42:16.785Z,11.90
2017-07-14T00:44:44.288Z,11.90
2017-07-14T00:47:11.866Z,11.80
2017-07-14T00:49:40.139Z,11.60
2017-07-14T00:52:08.404Z,11.60
2017-07-14T00:54:36.693Z,11.60
2017-07-14T00:57:04.985Z,11.50
2017-07-14T00:59:32.460Z,11.50
2017-07-14T01:01:59.987Z,11.40
2017-07-14T01:04:28.240Z,11.60
2017-07-14T01:06:55.763Z,11.60
2017-07-14T01:09:23.294Z,11.60
2017-07-14T01:11:50.809Z,11.50
2017-07-14T01:14:18.305Z,11.50
2017-07-14T01:16:45.825Z,11.60
2017-07-14T01:19:13.311Z,11.70
2017-07-14T01:21:41.629Z,11.70
2017-07-14T01:24:09.361Z,11.60
2017-07-14T01:26:37.635Z,11.70
2017-07-14T01:29:05.136Z,11.60
2017-07-14T01:31:32.643Z,11.60
2017-07-14T01:34:00.934Z,11.60
2017-07-14T01:36:28.426Z,11.60
2017-07-14T01:38:55.958Z,11.70
2017-07-14T01:41:23.444Z,11.70
2017-07-14T01:43:50.943Z,11.60
2017-07-14T01:46:18.452Z,11.60
2017-07-14T01:48:45.958Z,11.60
2017-07-14T01:51:13.441Z,11.60
2017-07-14T01:53:41.709Z,11.60
2017-07-14T01:56:09.191Z,11.50
2017-07-14T01:58:37.479Z,11.60
2017-07-14T02:01:04.995Z,11.60
2017-07-14T02:03:32.465Z,11.60
2017-07-14T02:06:00.721Z,11.50
2017-07-14T02:08:28.223Z,11.40
2017-07-14T02:10:55.710Z,11.40
2017-07-14T02:13:23.221Z,11.40
2017-07-14T02:15:51.507Z,11.40
2017-07-14T02:18:19.003Z,11.40
2017-07-14T02:20:46.638Z,11.40
2017-07-14T02:23:14.135Z,11.50
2017-07-14T02:25:41.667Z,11.50
2017-07-14T02:28:09.138Z,11.40
2017-07-14T02:30:36.638Z,11.60
2017-07-14T02:33:04.244Z,11.50
2017-07-14T02:35:32.047Z,11.60
2017-07-14T02:37:59.873Z,11.60
2017-07-14T02:40:27.363Z,11.50
2017-07-14T02:42:54.831Z,11.50
2017-07-14T02:45:22.358Z,11.50
2017-07-14T02:47:49.841Z,11.50
2017-07-14T02:50:17.332Z,11.60
2017-07-14T02:52:45.611Z,11.60
2017-07-14T02:55:13.903Z,11.70
2017-07-14T02:57:41.397Z,11.60
2017-07-14T03:00:08.935Z,11.70
2017-07-14T03:02:36.462Z,11.60
2017-07-14T03:05:03.979Z,11.60
2017-07-14T03:07:31.548Z,11.70
2017-07-14T03:09:59.079Z,11.70
2017-07-14T03:12:26.583Z,11.70
2017-07-14T03:14:54.116Z,11.70
2017-07-14T03:17:21.596Z,11.60
2017-07-14T03:19:49.113Z,11.40
2017-07-14T03:22:16.667Z,11.50
2017-07-14T03:24:44.159Z,11.60
2017-07-14T03:27:11.645Z,11.60
2017-07-14T03:29:39.942Z,11.80
2017-07-14T03:32:07.487Z,11.80
2017-07-14T03:34:35.760Z,12.00
2017-07-14T03:37:04.044Z,11.90
2017-07-14T03:39:32.290Z,12.10
2017-07-14T03:41:59.779Z,12.10
2017-07-14T03:44:28.049Z,12.30
2017-07-14T03:46:56.349Z,12.40
2017-07-14T03:49:23.845Z,12.30
2017-07-14T03:51:51.446Z,12.40
2017-07-14T03:54:18.957Z,12.40
2017-07-14T03:56:46.500Z,12.40
2017-07-14T03:59:14.063Z,12.30
2017-07-14T04:01:41.566Z,12.50
2017-07-14T04:04:09.718Z,12.60
2017-07-14T04:06:37.232Z,12.70
2017-07-14T04:09:04.728Z,12.70
2017-07-14T04:11:32.224Z,12.80
2017-07-14T04:13:59.735Z,12.80
2017-07-14T04:16:27.253Z,12.90
2017-07-14T04:18:55.518Z,12.90
2017-07-14T04:21:23.103Z,12.90
2017-07-14T04:23:51.412Z,13.20
2017-07-14T04:26:18.897Z,13.20
2017-07-14T04:28:46.433Z,13.20
2017-07-14T04:31:13.948Z,13.20
2017-07-14T04:33:42.199Z,13.40
2017-07-14T04:36:09.790Z,13.40
2017-07-14T04:38:38.096Z,13.70
2017-07-14T04:41:05.596Z,13.70
2017-07-14T04:43:33.129Z,13.70
2017-07-14T04:46:00.594Z,13.80
2017-07-14T04:48:28.082Z,13.70
2017-07-14T04:50:56.477Z,13.70
2017-07-14T04:53:24.726Z,13.90
2017-07-14T04:55:52.316Z,13.90
2017-07-14T04:58:20.593Z,14.20
2017-07-14T05:00:48.868Z,14.30
2017-07-14T05:03:17.124Z,14.40
2017-07-14T05:05:45.416Z,14.60
2017-07-14T05:08:13.680Z,14.80
2017-07-14T05:10:41.181Z,14.80
2017-07-14T05:13:08.730Z,14.90
2017-07-14T05:15:36.229Z,14.90
2017-07-14T05:18:03.721Z,14.90
2017-07-14T05:20:31.999Z,15.00
2017-07-14T05:23:00.294Z,15.10
2017-07-14T05:25:27.864Z,15.10
2017-07-14T05:27:55.447Z,15.10
2017-07-14T05:30:22.937Z,15.10
2017-07-14T05:32:50.446Z,15.20
2017-07-14T05:35:18.022Z,15.20
2017-07-14T05:37:45.524Z,14.90
2017-07-14T05:40:13.022Z,14.50
2017-07-14T05:42:40.546Z,14.30
2017-07-14T05:45:08.134Z,14.40
2017-07-14T05:47:35.633Z,14.60
2017-07-14T05:50:03.271Z,15.00
2017-07-14T05:52:30.824Z,15.30
2017-07-14T05:54:58.342Z,15.80
2017-07-14T05:57:44.708Z,16.20
2017-07-14T06:00:12.232Z,16.60
2017-07-14T06:02:39.729Z,16.70
2017-07-14T06:05:07.254Z,16.50
2017-07-14T06:07:34.819Z,16.30
2017-07-14T06:10:02.363Z,16.30
2017-07-14T06:12:29.889Z,16.80
2017-07-14T06:14:57.389Z,16.80
2017-07-14T06:17:24.883Z,17.10
2017-07-14T06:19:52.408Z,17.30
2017-07-14T06:22:19.893Z,17.70
2017-07-14T06:24:47.404Z,17.50
2017-07-14T06:27:15.713Z,17.00
2017-07-14T06:29:43.248Z,17.00
2017-07-14T06:32:11.522Z,16.80
2017-07-14T06:34:39.047Z,16.70
2017-07-14T06:37:06.558Z,16.90
2017-07-14T06:39:34.054Z,16.80
2017-07-14T06:42:01.575Z,16.40
2017-07-14T06:44:29.124Z,16.30
2017-07-14T06:46:57.383Z,16.20
2017-07-14T06:49:25.663Z,16.50
2017-07-14T06:51:53.937Z,17.00
2017-07-14T06:54:21.441Z,17.10
2017-07-14T06:56:48.995Z,17.50
2017-07-14T06:59:16.472Z,17.90
2017-07-14T07:01:43.998Z,18.10
2017-07-14T07:04:11.509Z,18.60
2017-07-14T07:06:39.061Z,18.80
2017-07-14T07:09:06.587Z,18.50
2017-07-14T07:11:34.113Z,19.00
2017-07-14T07:14:02.383Z,19.40
2017-07-14T07:16:29.869Z,19.40
2017-07-14T07:18:57.395Z,19.10
2017-07-14T07:21:25.490Z,18.80
2017-07-14T07:23:54.153Z,19.50
2017-07-14T07:26:21.677Z,19.40
2017-07-14T07:28:49.215Z,19.30
2017-07-14T07:31:16.743Z,19.30
2017-07-14T07:33:45.031Z,20.00
2017-07-14T07:36:13.339Z,19.80
2017-07-14T07:38:40.887Z,19.80
2017-07-14T07:41:08.418Z,20.00
2017-07-14T07:43:36.691Z,20.80
2017-07-14T07:46:04.953Z,21.50
2017-07-14T07:48:38.206Z,21.40
2017-07-14T07:51:05.717Z,21.10
2017-07-14T07:53:33.234Z,21.00
2017-07-14T07:56:00.759Z,21.20
2017-07-14T07:58:28.308Z,21.40
2017-07-14T08:00:56.601Z,21.70
2017-07-14T08:03:24.127Z,21.70
2017-07-14T08:05:51.639Z,21.60
2017-07-14T08:08:19.130Z,21.40
2017-07-14T08:10:47.688Z,21.30
2017-07-14T08:13:15.214Z,21.20
2017-07-14T08:15:42.751Z,21.40
2017-07-14T08:18:11.113Z,21.60
2017-07-14T08:20:38.632Z,21.50
2017-07-14T08:23:06.140Z,21.70
2017-07-14T08:25:33.665Z,22.40
2017-07-14T08:28:01.163Z,22.10
2017-07-14T08:30:29.470Z,21.10
2017-07-14T08:32:57.045Z,21.10
2017-07-14T08:35:24.609Z,21.80
2017-07-14T08:37:52.137Z,22.10
2017-07-14T08:40:20.440Z,22.60
2017-07-14T08:42:47.992Z,22.60
2017-07-14T08:45:15.512Z,22.80
2017-07-14T08:47:43.026Z,22.60
2017-07-14T08:50:10.556Z,22.60
2017-07-14T08:52:38.826Z,23.10
2017-07-14T08:55:07.101Z,23.40
2017-07-14T08:57:35.351Z,23.50
2017-07-14T09:00:02.872Z,23.50
2017-07-14T09:02:30.470Z,23.30
2017-07-14T09:04:57.956Z,22.60
2017-07-14T09:07:26.200Z,22.20
2017-07-14T09:09:53.813Z,22.20
2017-07-14T09:12:21.386Z,21.80
2017-07-14T09:14:48.914Z,21.90
2017-07-14T09:17:17.204Z,21.50
2017-07-14T09:19:44.698Z,21.50
2017-07-14T09:22:12.185Z,21.20
2017-07-14T09:24:39.695Z,21.00
2017-07-14T09:27:07.979Z,20.70
2017-07-14T09:29:35.474Z,20.40
2017-07-14T09:32:02.979Z,20.20
2017-07-14T09:34:30.493Z,20.30
2017-07-14T09:36:57.993Z,20.10
2017-07-14T09:39:25.508Z,20.10
2017-07-14T09:41:53.110Z,20.10
2017-07-14T09:44:20.597Z,20.20
2017-07-14T09:46:48.960Z,20.30
2017-07-14T09:49:16.456Z,20.30
2017-07-14T09:51:43.998Z,20.10
2017-07-14T09:54:11.538Z,19.80
2017-07-14T09:56:39.028Z,19.80
2017-07-14T09:59:06.549Z,19.60
2017-07-14T10:01:34.093Z,19.80
2017-07-14T10:04:02.350Z,19.90
2017-07-14T10:06:29.838Z,19.90
2017-07-14T10:08:57.364Z,20.00
2017-07-14T10:11:24.881Z,19.90
2017-07-14T10:13:52.360Z,19.80
2017-07-14T10:16:19.891Z,19.90
2017-07-14T10:18:47.524Z,19.80
2017-07-14T10:21:15.029Z,19.90
2017-07-14T10:23:42.729Z,19.90
2017-07-14T10:26:11.087Z,20.10
2017-07-14T10:28:38.616Z,20.10
2017-07-14T10:31:06.178Z,20.00
2017-07-14T10:33:33.666Z,20.00
2017-07-14T10:36:01.670Z,20.00
2017-07-14T10:38:29.975Z,20.30
2017-07-14T10:40:57.473Z,20.30
2017-07-14T10:43:24.989Z,20.50
2017-07-14T10:45:52.567Z,20.50
2017-07-14T10:48:20.908Z,20.40
2017-07-14T10:50:49.402Z,20.50
2017-07-14T10:53:17.188Z,20.50
2017-07-14T10:55:44.774Z,20.30
2017-07-14T10:58:12.264Z,20.30
2017-07-14T11:00:39.754Z,20.30
2017-07-14T11:03:07.549Z,20.40
2017-07-14T11:05:35.032Z,20.30
2017-07-14T11:08:02.552Z,20.20
2017-07-14T11:10:30.070Z,20.30
2017-07-14T11:12:58.314Z,20.60
2017-07-14T11:15:25.849Z,20.60
2017-07-14T11:17:53.464Z,20.40
2017-07-14T11:20:21.723Z,20.50
2017-07-14T11:22:49.266Z,20.40
2017-07-14T11:25:18.051Z,20.40
2017-07-14T11:27:45.590Z,20.50
2017-07-14T11:30:13.135Z,20.50
2017-07-14T11:32:40.680Z,20.50
2017-07-14T11:35:08.203Z,20.40
2017-07-14T11:37:35.709Z,20.50
2017-07-14T11:40:03.201Z,20.10
2017-07-14T11:42:30.681Z,19.90
2017-07-14T11:44:58.201Z,19.50
2017-07-14T11:47:25.713Z,19.40
2017-07-14T11:49:53.520Z,19.10
2017-07-14T11:52:21.121Z,18.20
2017-07-14T11:54:48.621Z,18.40
2017-07-14T11:57:16.201Z,18.30
2017-07-14T11:59:43.705Z,18.20
2017-07-14T12:02:11.224Z,18.40
2017-07-14T12:04:38.753Z,18.50
2017-07-14T12:07:07.026Z,18.40
2017-07-14T12:09:35.267Z,18.50
2017-07-14T12:12:02.781Z,18.50
2017-07-14T12:14:30.343Z,18.50
2017-07-14T12:16:57.905Z,18.90
2017-07-14T12:19:25.531Z,19.30
2017-07-14T12:21:53.854Z,20.10
2017-07-14T12:24:21.373Z,20.10
2017-07-14T12:26:48.865Z,20.20
2017-07-14T12:29:16.397Z,20.10
2017-07-14T12:31:43.966Z,20.60
2017-07-14T12:34:11.507Z,20.60
2017-07-14T12:36:39.819Z,20.80
2017-07-14T12:39:07.351Z,20.80
2017-07-14T12:41:35.689Z,21.60
2017-07-14T12:44:03.324Z,21.60
2017-07-14T12:46:30.830Z,22.20
2017-07-14T12:48:58.444Z,22.40
2017-07-14T12:51:26.311Z,23.00
2017-07-14T12:53:53.824Z,24.10
2017-07-14T12:56:21.331Z,24.60
2017-07-14T12:58:48.856Z,25.90
2017-07-14T13:01:17.127Z,24.90
2017-07-14T13:03:45.405Z,25.20
2017-07-14T13:06:13.724Z,26.60
2017-07-14T13:08:41.223Z,26.50
2017-07-14T13:11:08.815Z,26.30
2017-07-14T13:13:36.333Z,27.90
2017-07-14T13:16:03.839Z,29.00
2017-07-14T13:18:31.330Z,30.40
2017-07-14T13:20:58.860Z,31.30
2017-07-14T13:23:26.369Z,32.30
2017-07-14T13:25:53.908Z,32.60
2017-07-14T13:28:21.438Z,34.20
2017-07-14T13:30:48.963Z,34.30
2017-07-14T13:33:17.345Z,33.50
2017-07-14T13:35:44.885Z,35.00
2017-07-14T13:38:12.391Z,36.20
2017-07-14T13:40:39.951Z,36.90
2017-07-14T13:43:07.588Z,36.70
2017-07-14T13:45:35.976Z,37.20
2017-07-14T13:48:03.468Z,37.10
2017-07-14T13:50:31.014Z,34.20
2017-07-14T13:52:58.694Z,35.00
2017-07-14T13:55:26.209Z,36.40
2017-07-14T13:57:53.785Z,36.80
2017-07-14T14:00:21.325Z,36.40
2017-07-14T14:02:49.598Z,38.00
2017-07-14T14:05:17.114Z,38.00
2017-07-14T14:07:44.615Z,40.50
2017-07-14T14:10:12.111Z,40.70
2017-07-14T14:12:39.641Z,38.20
2017-07-14T14:15:07.149Z,37.20
2017-07-14T14:17:34.658Z,35.30
2017-07-14T14:20:03.001Z,34.60
2017-07-14T14:22:30.497Z,34.60
2017-07-14T14:24:58.764Z,35.10
2017-07-14T14:27:27.055Z,36.80
2017-07-14T14:29:54.649Z,36.70
2017-07-14T14:32:22.152Z,37.70
2017-07-14T14:34:49.790Z,37.10
2017-07-14T14:37:17.310Z,36.70
2017-07-14T14:39:44.810Z,34.90
2017-07-14T14:42:13.108Z,34.10
2017-07-14T14:44:40.591Z,34.10
2017-07-14T14:47:08.851Z,31.00
2017-07-14T14:49:36.384Z,30.90
2017-07-14T14:52:03.907Z,29.10
2017-07-14T14:54:31.395Z,28.50
2017-07-14T14:56:58.917Z,28.20
2017-07-14T14:59:27.180Z,27.50
2017-07-14T15:01:55.495Z,26.10
2017-07-14T15:04:23.039Z,26.00
2017-07-14T15:06:50.522Z,26.30
2017-07-14T15:09:18.008Z,26.80
2017-07-14T15:11:45.530Z,26.30
2017-07-14T15:14:13.038Z,26.50
2017-07-14T15:16:40.628Z,26.90
2017-07-14T15:19:08.157Z,29.60
2017-07-14T15:21:36.412Z,33.70
2017-07-14T15:24:03.898Z,33.60
2017-07-14T15:26:32.179Z,35.10
2017-07-14T15:29:00.446Z,36.80
2017-07-14T15:31:27.948Z,36.70
2017-07-14T15:33:55.505Z,36.70
2017-07-14T15:36:22.990Z,37.00
2017-07-14T15:38:50.490Z,38.00
2017-07-14T15:41:18.013Z,38.20
2017-07-14T15:43:45.510Z,37.90
2017-07-14T15:46:13.077Z,38.10
2017-07-14T15:48:41.367Z,37.40
2017-07-14T15:51:08.868Z,37.40
2017-07-14T15:53:36.371Z,35.10
2017-07-14T15:56:03.882Z,31.70
2017-07-14T15:58:31.429Z,31.50
2017-07-14T16:00:58.941Z,31.10
2017-07-14T16:03:26.460Z,30.70
2017-07-14T16:05:54.095Z,32.00
2017-07-14T16:08:21.595Z,33.60
2017-07-14T16:10:49.312Z,34.10
2017-07-14T16:13:16.895Z,35.20
2017-07-14T16:15:44.415Z,35.50
2017-07-14T16:18:11.968Z,36.30
2017-07-14T16:20:39.491Z,35.00
2017-07-14T16:23:07.004Z,34.80
2017-07-14T16:25:34.532Z,35.00
2017-07-14T16:28:02.787Z,34.90
2017-07-14T16:30:30.283Z,34.80
2017-07-14T16:32:57.813Z,33.00
2017-07-14T16:35:25.312Z,31.20
2017-07-14T16:37:52.864Z,29.90
2017-07-14T16:40:20.420Z,28.90
2017-07-14T16:42:49.302Z,28.40
2017-07-14T16:45:17.584Z,26.00
2017-07-14T16:47:45.903Z,25.10
2017-07-14T16:50:13.416Z,25.00
2017-07-14T16:52:41.677Z,24.90
2017-07-14T16:55:09.406Z,24.90
2017-07-14T16:57:36.947Z,24.90
2017-07-14T17:00:04.449Z,24.50
2017-07-14T17:02:33.004Z,23.90
2017-07-14T17:05:00.490Z,23.50
2017-07-14T17:07:27.989Z,23.10
2017-07-14T17:10:02.811Z,22.80
2017-07-14T17:12:31.110Z,22.30
2017-07-14T17:14:58.609Z,22.30
2017-07-14T17:17:26.137Z,22.10
2017-07-14T17:19:53.662Z,22.10
2017-07-14T17:22:21.990Z,21.90
2017-07-14T17:24:49.515Z,21.90
2017-07-14T17:27:17.101Z,21.90
2017-07-14T17:29:44.625Z,21.50
2017-07-14T17:32:12.933Z,20.30
2017-07-14T17:34:40.467Z,20.20
2017-07-14T17:37:07.988Z,19.80
2017-07-14T17:39:35.518Z,19.00
2017-07-14T17:42:03.069Z,18.70
2017-07-14T17:44:30.628Z,18.60
2017-07-14T17:46:58.185Z,18.40
2017-07-14T17:49:25.704Z,18.30
2017-07-14T17:51:53.990Z,18.00
2017-07-14T17:54:21.527Z,17.90
2017-07-14T17:56:49.045Z,17.60
2017-07-14T17:59:16.604Z,17.40
2017-07-14T18:01:44.145Z,17.10
2017-07-14T18:04:11.696Z,17.00
2017-07-14T18:06:39.959Z,16.30
2017-07-14T18:09:08.307Z,16.30
2017-07-14T18:11:35.922Z,16.30
2017-07-14T18:14:03.421Z,16.30
2017-07-14T18:16:31.044Z,16.20
2017-07-14T18:18:58.577Z,16.10
2017-07-14T18:21:26.855Z,16.70
2017-07-14T18:23:55.145Z,16.80
2017-07-14T18:26:23.465Z,17.00
2017-07-14T18:28:51.622Z,16.90
2017-07-14T18:31:19.187Z,17.20
2017-07-14T18:33:46.733Z,17.10
2017-07-14T18:36:14.211Z,16.80
2017-07-14T18:38:41.790Z,16.50
2017-07-14T18:41:09.287Z,16.10
2017-07-14T18:43:37.540Z,16.10
2017-07-14T18:46:05.128Z,16.00
2017-07-14T18:48:32.690Z,16.00
2017-07-14T18:53:53.441Z,16.10
2017-07-14T18:56:20.994Z,16.30
2017-07-14T18:58:48.499Z,16.40
2017-07-14T19:01:16.026Z,16.50
2017-07-14T19:03:43.566Z,16.50
2017-07-14T19:06:11.047Z,16.50
2017-07-14T19:08:38.559Z,16.30
2017-07-14T19:11:08.047Z,15.90
2017-07-14T19:13:35.566Z,15.90
2017-07-14T19:16:03.125Z,15.90
2017-07-14T19:18:30.661Z,15.70
2017-07-14T19:20:58.166Z,15.50
2017-07-14T19:23:25.691Z,15.40
2017-07-14T19:25:53.254Z,15.20
2017-07-14T19:28:21.542Z,15.10
2017-07-14T19:30:49.040Z,15.10
2017-07-14T19:33:16.551Z,15.00
2017-07-14T19:35:44.160Z,15.10
2017-07-14T19:38:11.681Z,15.20
2017-07-14T19:40:39.210Z,15.00
2017-07-14T19:43:06.892Z,14.90
2017-07-14T19:45:35.506Z,15.00
2017-07-14T19:48:03.021Z,14.80
2017-07-14T19:50:30.501Z,14.60
2017-07-14T19:52:58.006Z,14.70
2017-07-14T19:55:25.504Z,14.80
2017-07-14T19:57:53.002Z,15.00
2017-07-14T20:00:20.846Z,14.80
2017-07-14T20:02:48.364Z,14.70
2017-07-14T20:05:15.869Z,14.70
2017-07-14T20:07:43.522Z,14.50
2017-07-14T20:10:11.037Z,14.50
2017-07-14T20:12:39.338Z,14.30
2017-07-14T20:15:06.914Z,14.30
2017-07-14T20:17:34.420Z,14.30
2017-07-14T20:20:01.932Z,14.30
2017-07-14T20:22:29.485Z,14.30
2017-07-14T20:24:56.980Z,14.30
2017-07-14T20:27:24.487Z,14.20
2017-07-14T20:29:52.164Z,14.10
2017-07-14T20:32:19.668Z,13.90
2017-07-14T20:34:47.166Z,13.90
2017-07-14T20:37:14.692Z,13.80
2017-07-14T20:39:42.184Z,13.70
2017-07-14T20:42:09.767Z,13.70
2017-07-14T20:44:37.352Z,13.60
2017-07-14T20:47:04.840Z,13.60
2017-07-14T21:06:53.745Z,13.00
2017-07-14T21:09:21.241Z,13.00
2017-07-14T21:11:48.766Z,13.00
2017-07-14T21:14:16.307Z,12.90
2017-07-14T21:16:44.579Z,13.00
2017-07-14T21:19:12.168Z,12.90
2017-07-14T21:21:40.895Z,13.00
2017-07-14T21:24:08.485Z,13.10
2017-07-14T21:26:36.766Z,13.00
2017-07-14T21:29:05.068Z,12.90
2017-07-14T21:31:32.582Z,12.90
2017-07-14T21:34:00.080Z,12.90
2017-07-14T21:36:27.633Z,13.00
2017-07-14T21:38:55.154Z,13.10
2017-07-14T21:41:22.649Z,13.10
2017-07-14T21:43:50.917Z,13.10
2017-07-14T21:46:19.160Z,13.00
2017-07-14T21:48:46.661Z,13.00
2017-07-14T21:51:14.937Z,13.10
2017-07-14T21:53:42.433Z,13.10
2017-07-14T21:56:09.929Z,12.90
2017-07-14T21:58:37.453Z,13.00
2017-07-14T22:01:04.938Z,13.00
2017-07-14T22:03:32.440Z,12.90
2017-07-14T22:05:59.942Z,12.90
2017-07-14T22:08:27.481Z,12.70
2017-07-14T22:10:54.967Z,12.60
2017-07-14T22:13:22.570Z,12.50
2017-07-14T22:15:50.135Z,12.30
2017-07-14T22:18:17.622Z,12.40
2017-07-14T22:20:45.134Z,12.50
2017-07-14T22:23:13.387Z,12.50
2017-07-14T22:25:40.900Z,12.40
2017-07-14T22:28:08.412Z,12.50
2017-07-14T22:30:35.941Z,12.40
2017-07-14T22:33:03.426Z,12.50
2017-07-14T22:35:30.948Z,12.50
2017-07-14T22:37:58.436Z,12.50
2017-07-14T22:40:25.938Z,12.60
2017-07-14T22:42:53.458Z,12.60
2017-07-14T22:45:20.971Z,12.60
2017-07-14T22:47:48.538Z,12.70
2017-07-14T22:50:16.109Z,12.70
2017-07-14T22:52:43.624Z,12.80
2017-07-14T22:55:11.907Z,12.80
2017-07-14T22:57:39.433Z,12.80
2017-07-14T23:00:06.925Z,12.90
2017-07-14T23:02:34.416Z,12.90
2017-07-14T23:05:01.936Z,12.90
2017-07-14T23:07:30.221Z,12.80
2017-07-14T23:09:57.717Z,12.80
2017-07-14T23:12:25.225Z,12.70
2017-07-14T23:14:53.494Z,12.70
2017-07-14T23:17:21.784Z,12.60
2017-07-14T23:19:49.322Z,12.60
2017-07-14T23:22:16.811Z,12.60
2017-07-14T23:24:44.310Z,12.50
2017-07-14T23:27:11.824Z,12.50
2017-07-14T23:29:40.421Z,12.40
2017-07-14T23:32:07.903Z,12.40
2017-07-14T23:34:35.415Z,12.30
2017-07-14T23:37:04.505Z,12.30
2017-07-14T23:39:32.804Z,12.30
2017-07-14T23:42:00.330Z,12.30
2017-07-14T23:44:27.815Z,12.30
2017-07-14T23:46:56.075Z,12.30
2017-07-14T23:49:24.389Z,12.20
2017-07-14T23:51:51.907Z,12.20
2017-07-14T23:54:19.506Z,12.10
2017-07-14T23:56:47.026Z,12.10
2017-07-14T23:59:14.522Z,12.30
